Aérodrome :
LOGIN :

S'inscrire | Disclaimer

   EN    FR    IT 

 










Légende :    VFR   VFR Marginal   IFR   IFR Intensif   IFR Très Intensif
Visi : 
Plafond : 
>= 8 km
>= 3000ft
5 à 8 km
1000 à 3000 ft
1500m à 5 km
500 à 1000 ft
800 à 1500m
200 à 500 ft
< 800m
< 200 ft
Symboles :   Orages  Brouillard  Fortes neiges  Fortes précipitations  Vent > 20 kt
SIGMETs :   Divers  Orages  Givrage  Turbulence  Onde Orograph.  Cendres Volcan.






- Altitude de l'aérodrome : 218 ft
- Code IATA : LBG


LFPB - Paris / Le Bourget

DERNIER METAR :
  • 091800Z AUTO 04003KT 6000 BKN008 BKN056 01/00 Q1007 BECMG 2500 BR

METARs EXPIRÉS :
  • 091730Z AUTO 36005KT 320V030 7000 OVC007 01/00 Q1006 BECMG 2500 BR
  • 091700Z AUTO 36004KT 320V020 7000 BKN008 01/M00 Q1006 BECMG 4000 BR
  • 091630Z AUTO VRB01KT 8000 NSC 01/M00 Q1006 BECMG 3500 BR BKN008
  • 091600Z AUTO 32003KT CAVOK 01/M00 Q1006 NOSIG
  • 091530Z AUTO 35004KT 320V020 CAVOK 02/00 Q1006 NOSIG

TAF TAF LFPB
Valide du 09 à 18h jusqu'au 10 à 18h UTC


091700Z 0918/1018 36005KT 6000 BKN006
BECMG 0918/0921 2500 BR
PROB40
TEMPO 0921/1008 0600 FG BKN001
PROB30
TEMPO 0923/1008 FZFG
BECMG 1011/1013 8000 NSW BKN012
ATIS : +33 1 48 62 43 92



MET'MAP, la Météo Aéronautique d'un coup d'oeil ! - Copyright ORBIFLY Décembre 2007 - Disclaimer

ORBIFLY MET'MAP TEAM :

Programmation & Développement : Alexandra Zaïnal
Sur une idée originale de : Baudouin d'Aumeries
Soutien technique & logistique : Manuel Goepfert
Assistance : Marc-Olivier Méhu




SOURCES & CREDITS :

   NOAA